createdAt,value
2023-03-11T00:01:27.833Z,96113.45
2023-03-11T00:04:19.825Z,96105.58
2023-03-11T00:07:12.706Z,96105.73
2023-03-11T00:10:04.980Z,96096.65
2023-03-11T00:12:57.012Z,96096.77
2023-03-11T00:15:51.464Z,96097.40
2023-03-11T00:18:43.642Z,96103.52
2023-03-11T00:21:36.024Z,96102.73
2023-03-11T00:24:11.776Z,96100.77
2023-03-11T00:27:04.015Z,96106.33
2023-03-11T00:29:56.086Z,96105.66
2023-03-11T00:32:49.869Z,96102.15
2023-03-11T00:35:41.922Z,96095.88
2023-03-11T00:38:33.789Z,96091.77
2023-03-11T00:41:10.842Z,96086.33
2023-03-11T00:44:03.112Z,96084.33
2023-03-11T00:46:55.273Z,96081.27
2023-03-11T00:49:27.188Z,96080.75
2023-03-11T00:52:19.344Z,96081.48
2023-03-11T00:55:14.437Z,96079.68
2023-03-11T00:58:09.811Z,96077.38
2023-03-11T01:01:01.800Z,96088.09
2023-03-11T01:03:53.851Z,96090.91
2023-03-11T01:06:43.190Z,96088.73
2023-03-11T01:09:37.384Z,96084.98
2023-03-11T01:12:29.394Z,96081.35
2023-03-11T01:15:25.468Z,96082.17
2023-03-11T01:18:17.784Z,96080.86
2023-03-11T01:21:09.790Z,96078.31
2023-03-11T01:23:52.042Z,96073.02
2023-03-11T01:26:27.128Z,96077.42
2023-03-11T01:29:19.061Z,96075.92
2023-03-11T01:32:12.308Z,96073.42
2023-03-11T01:35:04.384Z,96076.10
2023-03-11T01:37:56.762Z,96079.64
2023-03-11T01:40:50.941Z,96080.48
2023-03-11T01:43:52.361Z,96083.95
2023-03-11T01:47:14.753Z,96084.77
2023-03-11T01:50:12.823Z,96090.59
2023-03-11T01:53:05.790Z,96085.91
2023-03-11T01:55:58.318Z,96086.52
2023-03-11T01:58:53.583Z,96082.91
2023-03-11T02:01:53.891Z,96081.83
2023-03-11T02:04:46.059Z,96079.96
2023-03-11T02:07:38.904Z,96079.09
2023-03-11T02:10:31.606Z,96077.34
2023-03-11T02:13:24.449Z,96081.50
2023-03-11T02:16:17.288Z,96076.27
2023-03-11T02:19:19.451Z,96075.53
2023-03-11T02:22:12.920Z,96075.91
2023-03-11T02:25:11.373Z,96073.70
2023-03-11T02:28:04.593Z,96071.84
2023-03-11T02:30:58.546Z,96075.20
2023-03-11T02:33:54.031Z,96069.60
2023-03-11T02:36:46.078Z,96076.38
2023-03-11T02:39:40.809Z,96077.65
2023-03-11T02:42:34.633Z,96076.29
2023-03-11T02:45:28.229Z,96079.11
2023-03-11T02:48:22.493Z,96082.36
2023-03-11T02:51:14.540Z,96090.30
2023-03-11T02:54:07.930Z,96095.48
2023-03-11T02:56:59.994Z,96089.81
2023-03-11T02:59:52.031Z,96093.72
2023-03-11T03:02:45.548Z,96093.41
2023-03-11T03:05:37.595Z,96093.88
2023-03-11T03:08:29.721Z,96099.64
2023-03-11T03:11:21.812Z,96105.27
2023-03-11T03:14:13.870Z,96108.05
2023-03-11T03:17:05.987Z,96108.98
2023-03-11T03:19:58.147Z,96108.41
2023-03-11T03:22:50.374Z,96108.88
2023-03-11T03:25:44.771Z,96113.34
2023-03-11T03:28:36.855Z,96108.65
2023-03-11T03:31:28.829Z,96116.70
2023-03-11T03:34:20.786Z,96119.73
2023-03-11T03:37:12.761Z,96125.86
2023-03-11T03:40:07.803Z,96131.88
2023-03-11T03:42:59.824Z,96127.05
2023-03-11T03:45:59.913Z,96126.52
2023-03-11T03:48:34.697Z,96120.22
2023-03-11T03:51:26.656Z,96122.08
2023-03-11T03:54:18.995Z,96123.89
2023-03-11T03:57:11.101Z,96127.52
2023-03-11T04:00:04.417Z,96126.14
2023-03-11T04:02:56.367Z,96125.12
2023-03-11T04:05:48.338Z,96130.98
2023-03-11T04:08:40.527Z,96135.71
2023-03-11T04:11:32.704Z,96131.02
2023-03-11T04:14:24.719Z,96128.02
2023-03-11T04:17:17.782Z,96129.07
2023-03-11T04:20:11.806Z,96130.30
2023-03-11T04:23:03.757Z,96131.98
2023-03-11T04:25:55.833Z,96136.41
2023-03-11T04:28:47.805Z,96134.59
2023-03-11T04:31:39.789Z,96127.34
2023-03-11T04:34:31.777Z,96125.00
2023-03-11T04:37:23.829Z,96118.98
2023-03-11T04:40:16.611Z,96123.48
2023-03-11T04:43:09.172Z,96133.98
2023-03-11T04:46:01.344Z,96140.31
2023-03-11T04:48:36.203Z,96139.30
2023-03-11T04:51:17.148Z,96140.63
2023-03-11T04:54:09.756Z,96140.14
2023-03-11T04:57:01.963Z,96139.25
2023-03-11T04:59:53.989Z,96147.64
2023-03-11T05:02:45.913Z,96141.66
2023-03-11T05:05:38.011Z,96150.63
2023-03-11T05:08:30.124Z,96153.42
2023-03-11T05:11:22.161Z,96151.31
2023-03-11T05:14:03.084Z,96151.83
2023-03-11T05:16:40.182Z,96159.13
2023-03-11T05:19:34.505Z,96156.88
2023-03-11T05:22:26.640Z,96161.42
2023-03-11T05:24:58.604Z,96163.23
2023-03-11T05:27:50.548Z,96161.80
2023-03-11T05:30:42.500Z,96164.11
2023-03-11T05:33:35.799Z,96172.59
2023-03-11T05:36:27.916Z,96177.54
2023-03-11T05:39:08.761Z,96181.67
2023-03-11T05:41:50.808Z,96190.08
2023-03-11T05:44:43.233Z,96183.98
2023-03-11T05:47:35.618Z,96191.50
2023-03-11T05:50:27.801Z,96202.59
2023-03-11T05:53:19.744Z,96201.14
2023-03-11T05:56:11.846Z,96211.13
2023-03-11T05:59:04.042Z,96219.34
2023-03-11T06:01:56.030Z,96235.11
2023-03-11T06:04:33.120Z,96241.51
2023-03-11T06:07:25.295Z,96242.89
2023-03-11T06:10:15.132Z,96255.77
2023-03-11T06:12:50.224Z,96265.00
2023-03-11T06:15:42.239Z,96264.16
2023-03-11T06:18:34.266Z,96268.51
2023-03-11T06:21:27.176Z,96273.40
2023-03-11T06:24:19.241Z,96283.22
2023-03-11T06:27:11.315Z,96290.94
2023-03-11T06:30:03.461Z,96299.95
2023-03-11T06:32:55.653Z,96304.89
2023-03-11T06:35:28.005Z,96305.23
2023-03-11T06:38:20.143Z,96311.20
2023-03-11T06:41:12.411Z,96313.52
2023-03-11T06:44:04.946Z,96320.98
2023-03-11T06:46:40.281Z,96322.80
2023-03-11T06:49:32.580Z,96329.80
2023-03-11T06:52:24.722Z,96335.53
2023-03-11T06:55:16.835Z,96338.31
2023-03-11T06:58:08.880Z,96341.92
2023-03-11T07:01:04.865Z,96346.14
2023-03-11T07:03:56.910Z,96354.37
2023-03-11T07:06:49.061Z,96357.02
2023-03-11T07:09:41.085Z,96362.66
2023-03-11T07:12:33.509Z,96363.89
2023-03-11T07:15:25.525Z,96370.45
2023-03-11T07:18:00.675Z,96372.00
2023-03-11T07:20:52.719Z,96374.27
2023-03-11T07:23:44.998Z,96377.58
2023-03-11T07:26:37.588Z,96379.36
2023-03-11T07:29:20.276Z,96384.22
2023-03-11T07:32:12.332Z,96386.84
2023-03-11T07:35:04.611Z,96391.96
2023-03-11T07:37:56.816Z,96395.98
2023-03-11T07:40:40.644Z,96396.05
2023-03-11T07:43:33.201Z,96404.55
2023-03-11T07:46:27.100Z,96406.30
2023-03-11T07:48:59.661Z,96405.94
2023-03-11T07:51:51.613Z,96410.09
2023-03-11T07:54:45.185Z,96414.23
2023-03-11T07:57:28.182Z,96418.55
2023-03-11T08:00:22.145Z,96423.73
2023-03-11T08:03:14.202Z,96429.11
2023-03-11T08:06:12.742Z,96427.04
2023-03-11T08:09:07.334Z,96428.90
2023-03-11T08:11:42.660Z,96439.44
2023-03-11T08:14:17.620Z,96438.97
2023-03-11T08:16:52.105Z,96441.95
2023-03-11T08:19:29.008Z,96447.06
2023-03-11T08:22:21.167Z,96452.43
2023-03-11T08:24:56.667Z,96451.61
2023-03-11T08:27:48.965Z,96458.17
2023-03-11T08:30:42.100Z,96461.45
2023-03-11T08:33:34.183Z,96466.02
2023-03-11T08:36:27.347Z,96470.58
2023-03-11T08:39:19.748Z,96472.33
2023-03-11T08:42:14.395Z,96470.85
2023-03-11T08:45:07.991Z,96472.73
2023-03-11T08:48:00.133Z,96480.33
2023-03-11T08:50:54.609Z,96480.46
2023-03-11T08:53:47.253Z,96489.06
2023-03-11T08:56:40.185Z,96489.02
2023-03-11T08:59:33.145Z,96494.04
2023-03-11T09:02:25.389Z,96495.00
2023-03-11T09:05:18.056Z,96498.22
2023-03-11T09:08:10.641Z,96506.13
2023-03-11T09:11:03.153Z,96511.31
2023-03-11T09:13:55.388Z,96516.47
2023-03-11T09:16:47.684Z,96520.52
2023-03-11T09:19:39.726Z,96528.23
2023-03-11T09:22:32.352Z,96530.91
2023-03-11T09:25:24.404Z,96533.06
2023-03-11T09:28:17.094Z,96536.40
2023-03-11T09:30:52.052Z,96538.42
2023-03-11T09:33:45.015Z,96542.83
2023-03-11T09:36:21.984Z,96543.39
2023-03-11T09:39:14.264Z,96552.56
2023-03-11T09:42:16.440Z,96554.06
2023-03-11T09:45:13.514Z,96558.14
2023-03-11T09:48:22.421Z,96559.76
2023-03-11T09:51:20.186Z,96564.52
2023-03-11T09:54:14.227Z,96568.75
2023-03-11T09:56:55.295Z,96576.77
2023-03-11T09:59:48.848Z,96580.29
2023-03-11T10:02:41.647Z,96583.77
2023-03-11T10:05:33.845Z,96590.89
2023-03-11T10:08:33.991Z,96595.07
2023-03-11T10:11:51.293Z,96598.75
2023-03-11T10:15:01.280Z,96609.35
2023-03-11T10:18:06.359Z,96611.13
2023-03-11T10:21:07.443Z,96619.07
2023-03-11T10:24:15.178Z,96622.34
2023-03-11T10:27:15.626Z,96628.52
2023-03-11T10:30:16.315Z,96632.79
2023-03-11T10:33:18.501Z,96642.10
2023-03-11T10:36:19.571Z,96650.64
2023-03-11T10:39:13.852Z,96659.49
2023-03-11T10:42:12.160Z,96661.45
2023-03-11T10:45:04.417Z,96672.45
2023-03-11T10:47:58.957Z,96680.91
2023-03-11T10:50:37.335Z,96689.69
2023-03-11T10:53:30.120Z,96692.13
2023-03-11T10:56:31.651Z,96699.73
2023-03-11T10:59:27.211Z,96703.22
2023-03-11T11:02:27.785Z,96710.33
2023-03-11T11:05:32.697Z,96713.88
2023-03-11T11:08:24.742Z,96719.11
2023-03-11T11:11:20.943Z,96732.46
2023-03-11T11:14:13.000Z,96744.25
2023-03-11T11:17:05.062Z,96759.61
2023-03-11T11:19:59.044Z,96761.34
2023-03-11T11:22:56.400Z,96770.29
2023-03-11T11:26:00.411Z,96779.04
2023-03-11T11:29:09.329Z,96789.49
2023-03-11T11:32:17.838Z,96788.42
2023-03-11T11:35:14.653Z,96798.22
2023-03-11T11:38:09.880Z,96811.08
2023-03-11T11:41:06.539Z,96820.67
2023-03-11T11:44:01.937Z,96833.08
2023-03-11T11:46:42.023Z,96839.42
2023-03-11T11:49:35.992Z,96852.44
2023-03-11T11:52:33.269Z,96853.44
2023-03-11T11:55:27.650Z,96868.09
2023-03-11T11:58:20.150Z,96868.72
2023-03-11T12:01:20.226Z,96876.06
2023-03-11T12:04:31.756Z,96893.11
2023-03-11T12:07:16.093Z,96899.16
2023-03-11T12:10:24.128Z,96909.31
2023-03-11T12:13:41.861Z,96910.51
2023-03-11T12:16:44.899Z,96921.87
2023-03-11T12:19:50.059Z,96929.08
2023-03-11T12:22:55.116Z,96941.07
2023-03-11T12:26:03.356Z,96948.00
2023-03-11T12:28:46.579Z,96952.73
2023-03-11T12:31:40.760Z,96959.52
2023-03-11T12:34:37.129Z,96966.98
2023-03-11T12:37:29.241Z,96972.89
2023-03-11T12:40:47.266Z,96980.89
2023-03-11T12:44:10.800Z,96987.11
2023-03-11T12:47:24.746Z,96997.33
2023-03-11T12:50:43.630Z,97005.07
2023-03-11T12:53:50.260Z,97017.73
2023-03-11T12:56:41.739Z,97023.48
2023-03-11T13:00:17.458Z,97035.58
2023-03-11T13:03:25.680Z,97039.25
2023-03-11T13:07:01.376Z,97052.05
2023-03-11T13:10:13.525Z,97059.67
2023-03-11T13:12:57.511Z,97072.94
2023-03-11T13:15:43.083Z,97083.13
2023-03-11T13:18:35.569Z,97085.75
2023-03-11T13:21:42.143Z,97099.42
2023-03-11T13:24:52.307Z,97112.88
2023-03-11T13:27:52.392Z,97121.21
2023-03-11T13:30:52.239Z,97130.92
2023-03-11T13:33:52.802Z,97150.73
2023-03-11T13:37:05.723Z,97149.02
2023-03-11T13:40:07.586Z,97158.84
2023-03-11T13:42:59.136Z,97161.45
2023-03-11T13:45:54.888Z,97171.11
2023-03-11T13:48:49.716Z,97172.48
2023-03-11T13:51:44.868Z,97176.80
2023-03-11T13:54:44.764Z,97186.80
2023-03-11T13:57:38.295Z,97190.45
2023-03-11T14:00:34.072Z,97200.48
2023-03-11T14:03:14.991Z,97208.56
2023-03-11T14:06:09.581Z,97212.35
2023-03-11T14:09:01.606Z,97227.14
2023-03-11T14:11:57.111Z,97225.95
2023-03-11T14:14:58.135Z,97235.79
2023-03-11T14:17:43.409Z,97243.72
2023-03-11T14:20:35.696Z,97256.30
2023-03-11T14:23:30.991Z,97256.48
2023-03-11T14:26:25.308Z,97257.69
2023-03-11T14:29:23.205Z,97264.23
2023-03-11T14:32:29.188Z,97270.08
2023-03-11T14:35:23.617Z,97275.77
2023-03-11T14:38:26.934Z,97280.25
2023-03-11T14:41:19.046Z,97290.77
2023-03-11T14:44:13.075Z,97299.72
2023-03-11T14:47:12.797Z,97309.38
2023-03-11T14:50:07.219Z,97316.96
2023-03-11T14:53:04.797Z,97323.17
2023-03-11T14:55:51.051Z,97328.00
2023-03-11T14:58:51.090Z,97330.25
2023-03-11T15:01:49.253Z,97335.73
2023-03-11T15:04:44.353Z,97336.08
2023-03-11T15:07:38.523Z,97337.13
2023-03-11T15:10:21.161Z,97340.23
2023-03-11T15:13:17.513Z,97344.88
2023-03-11T15:16:01.944Z,97352.45
2023-03-11T15:18:37.481Z,97356.93
2023-03-11T15:21:20.800Z,97366.41
2023-03-11T15:24:23.115Z,97374.52
2023-03-11T15:27:28.761Z,97371.07
2023-03-11T15:30:24.803Z,97382.10
2023-03-11T15:33:34.583Z,97384.17
2023-03-11T15:36:35.587Z,97389.02
2023-03-11T15:39:43.822Z,97399.02
2023-03-11T15:42:35.800Z,97403.67
2023-03-11T15:45:27.943Z,97405.91
2023-03-11T15:48:20.000Z,97417.80
2023-03-11T15:51:21.901Z,97422.64
2023-03-11T15:54:13.893Z,97430.75
2023-03-11T15:57:12.405Z,97436.11
2023-03-11T16:00:24.669Z,97441.10
2023-03-11T16:03:17.178Z,97450.05
2023-03-11T16:06:09.385Z,97454.02
2023-03-11T16:09:01.494Z,97462.31
2023-03-11T16:11:53.461Z,97466.80
2023-03-11T16:14:46.260Z,97474.55
2023-03-11T16:17:24.232Z,97484.02
2023-03-11T16:20:16.975Z,97489.71
2023-03-11T16:22:51.686Z,97495.06
2023-03-11T16:25:44.329Z,97501.79
2023-03-11T16:28:36.351Z,97502.48
2023-03-11T16:31:11.403Z,97517.27
2023-03-11T16:33:52.294Z,97520.03
2023-03-11T16:36:44.294Z,97522.95
2023-03-11T16:39:37.753Z,97527.95
2023-03-11T16:42:29.790Z,97531.07
2023-03-11T16:45:11.872Z,97539.16
2023-03-11T16:47:48.955Z,97545.19
2023-03-11T16:50:24.564Z,97553.11
2023-03-11T16:53:17.700Z,97564.81
2023-03-11T16:56:10.221Z,97577.20
2023-03-11T16:59:02.559Z,97584.96
2023-03-11T17:01:54.514Z,97590.64
2023-03-11T17:04:35.343Z,97598.73
2023-03-11T17:07:27.457Z,97602.88
2023-03-11T17:10:20.390Z,97612.52
2023-03-11T17:13:11.142Z,97616.10
2023-03-11T17:16:03.879Z,97622.64
2023-03-11T17:18:55.844Z,97633.84
2023-03-11T17:21:47.883Z,97637.27
2023-03-11T17:24:30.401Z,97645.71
2023-03-11T17:27:22.459Z,97657.59
2023-03-11T17:30:27.017Z,97657.94
2023-03-11T17:33:22.743Z,97664.65
2023-03-11T17:36:17.168Z,97674.12
2023-03-11T17:39:09.485Z,97677.39
2023-03-11T17:42:01.422Z,97682.38
2023-03-11T17:44:55.832Z,97686.69
2023-03-11T17:47:48.091Z,97693.39
2023-03-11T17:50:40.882Z,97698.38
2023-03-11T17:53:33.228Z,97702.17
2023-03-11T17:56:26.430Z,97709.41
2023-03-11T17:59:18.717Z,97711.98
2023-03-11T18:02:15.139Z,97718.34
2023-03-11T18:05:09.404Z,97728.83
2023-03-11T18:08:01.756Z,97736.92
2023-03-11T18:10:55.697Z,97745.01
2023-03-11T18:13:47.904Z,97748.96
2023-03-11T18:16:40.102Z,97755.15
2023-03-11T18:19:32.231Z,97760.49
2023-03-11T18:22:24.356Z,97766.85
2023-03-11T18:24:59.176Z,97775.81
2023-03-11T18:27:51.392Z,97779.42
2023-03-11T18:30:43.478Z,97783.73
2023-03-11T18:33:35.601Z,97786.81
2023-03-11T18:36:29.570Z,97790.95
2023-03-11T18:39:13.831Z,97792.33
2023-03-11T18:42:06.305Z,97800.94
2023-03-11T18:44:58.310Z,97806.77
2023-03-11T18:47:50.335Z,97808.67
2023-03-11T18:50:22.762Z,97816.77
2023-03-11T18:53:15.268Z,97818.67
2023-03-11T18:56:10.032Z,97816.61
2023-03-11T18:59:02.663Z,97824.19
2023-03-11T19:01:54.781Z,97827.80
2023-03-11T19:04:47.440Z,97834.69
2023-03-11T19:07:39.522Z,97838.82
2023-03-11T19:10:20.945Z,97842.44
2023-03-11T19:13:13.226Z,97844.68
2023-03-11T19:16:06.041Z,97848.48
2023-03-11T19:18:58.933Z,97848.66
2023-03-11T19:21:51.024Z,97855.38
2023-03-11T19:24:43.881Z,97852.79
2023-03-11T19:27:38.896Z,97858.09
2023-03-11T19:30:27.265Z,97866.13
2023-03-11T19:33:19.468Z,97875.05
2023-03-11T19:36:12.224Z,97879.52
2023-03-11T19:39:04.586Z,97885.84
2023-03-11T19:41:56.704Z,97888.07
2023-03-11T19:44:49.811Z,97892.53
2023-03-11T19:47:42.927Z,97892.69
2023-03-11T19:50:34.984Z,97894.23
2023-03-11T19:53:27.411Z,97897.09
2023-03-11T19:56:19.566Z,97898.29
2023-03-11T19:59:11.661Z,97902.77
2023-03-11T20:02:04.364Z,97905.19
2023-03-11T20:04:53.106Z,97909.86
2023-03-11T20:07:45.075Z,97913.85
2023-03-11T20:10:40.541Z,97919.03
2023-03-11T20:13:31.895Z,97918.04
2023-03-11T20:16:24.107Z,97920.66
2023-03-11T20:19:16.364Z,97918.95
2023-03-11T20:22:08.409Z,97918.78
2023-03-11T20:24:45.758Z,97917.06
2023-03-11T20:27:20.532Z,97917.94
2023-03-11T20:30:14.877Z,97919.48
2023-03-11T20:33:07.285Z,97919.15
2023-03-11T20:36:08.450Z,97926.92
2023-03-11T20:39:00.967Z,97929.19
2023-03-11T20:41:53.939Z,97934.70
2023-03-11T20:44:46.549Z,97937.63
2023-03-11T20:47:39.356Z,97934.02
2023-03-11T20:50:33.290Z,97933.85
2023-03-11T20:53:10.444Z,97934.02
2023-03-11T20:56:09.648Z,97939.87
2023-03-11T20:59:02.456Z,97943.10
2023-03-11T21:01:54.699Z,97943.94
2023-03-11T21:04:47.917Z,97951.14
2023-03-11T21:07:28.914Z,97954.19
2023-03-11T21:10:21.260Z,97956.38
2023-03-11T21:13:13.355Z,97960.30
2023-03-11T21:16:06.983Z,97962.71
2023-03-11T21:19:01.545Z,97966.15
2023-03-11T21:21:54.795Z,97968.73
2023-03-11T21:24:52.433Z,97965.81
2023-03-11T21:27:46.900Z,97972.02
2023-03-11T21:30:42.349Z,97975.27
2023-03-11T21:33:37.209Z,97977.69
2023-03-11T21:36:30.183Z,97982.88
2023-03-11T21:39:23.734Z,97984.97
2023-03-11T21:41:59.036Z,97983.42
2023-03-11T21:44:54.290Z,97982.10
2023-03-11T21:47:48.024Z,97984.17
2023-03-11T21:50:42.222Z,97983.33
2023-03-11T21:53:35.893Z,97982.11
2023-03-11T21:56:28.848Z,97985.91
2023-03-11T21:59:25.014Z,97993.13
2023-03-11T22:02:19.037Z,97995.37
2023-03-11T22:05:12.469Z,98000.17
2023-03-11T22:08:04.891Z,98005.52
2023-03-11T22:10:57.360Z,98006.38
2023-03-11T22:13:52.081Z,98008.43
2023-03-11T22:16:44.233Z,98007.39
2023-03-11T22:19:37.019Z,98012.49
2023-03-11T22:22:30.347Z,98010.38
2023-03-11T22:25:31.185Z,98013.55
2023-03-11T22:28:23.342Z,98020.52
2023-03-11T22:31:19.568Z,98023.36
2023-03-11T22:34:11.741Z,98025.65
2023-03-11T22:36:46.434Z,98026.41
2023-03-11T22:39:28.747Z,98034.07
2023-03-11T22:42:20.811Z,98042.38
2023-03-11T22:45:13.795Z,98041.95
2023-03-11T22:48:06.012Z,98044.95
2023-03-11T22:50:58.049Z,98042.64
2023-03-11T22:53:32.995Z,98043.45
2023-03-11T22:56:25.025Z,98040.48
2023-03-11T22:59:17.040Z,98040.27
2023-03-11T23:02:09.165Z,98038.30
2023-03-11T23:04:48.063Z,98044.10
2023-03-11T23:07:28.990Z,98044.05
2023-03-11T23:10:21.716Z,98049.14
2023-03-11T23:13:14.622Z,98047.58
2023-03-11T23:16:09.296Z,98047.91
2023-03-11T23:19:02.132Z,98052.13
2023-03-11T23:21:43.989Z,98047.05
2023-03-11T23:24:21.297Z,98046.46
2023-03-11T23:27:13.298Z,98050.98
2023-03-11T23:30:05.927Z,98050.12
2023-03-11T23:32:41.032Z,98053.88
2023-03-11T23:35:34.169Z,98051.04
2023-03-11T23:38:16.194Z,98052.02
2023-03-11T23:41:11.384Z,98057.80
2023-03-11T23:44:03.353Z,98066.34
2023-03-11T23:46:55.508Z,98068.61
2023-03-11T23:49:32.498Z,98067.14
2023-03-11T23:52:24.857Z,98076.02
2023-03-11T23:55:17.260Z,98073.66
2023-03-11T23:58:09.718Z,98074.58
